sensor_id;sensor_type;location;lat;lon;timestamp;temperature;humidity
26947;DHT22;14501;52.282;10.560;2023-02-19T00:03:26;8.30;99.90
26947;DHT22;14501;52.282;10.560;2023-02-19T00:05:52;9.50;99.90
26947;DHT22;14501;52.282;10.560;2023-02-19T00:08:17;10.60;99.90
26947;DHT22;14501;52.282;10.560;2023-02-19T00:10:43;8.30;99.90
26947;DHT22;14501;52.282;10.560;2023-02-19T00:13:09;8.30;99.90
26947;DHT22;14501;52.282;10.560;2023-02-19T00:15:34;8.30;99.90
26947;DHT22;14501;52.282;10.560;2023-02-19T00:20:26;8.30;99.90
26947;DHT22;14501;52.282;10.560;2023-02-19T00:22:52;8.30;99.90
26947;DHT22;14501;52.282;10.560;2023-02-19T00:25:17;8.90;99.90
26947;DHT22;14501;52.282;10.560;2023-02-19T00:27:43;9.90;99.90
26947;DHT22;14501;52.282;10.560;2023-02-19T00:30:09;10.60;99.90
26947;DHT22;14501;52.282;10.560;2023-02-19T00:32:34;8.30;99.90
26947;DHT22;14501;52.282;10.560;2023-02-19T00:35:00;8.70;99.90
26947;DHT22;14501;52.282;10.560;2023-02-19T00:37:26;8.60;99.90
26947;DHT22;14501;52.282;10.560;2023-02-19T00:39:51;10.90;99.90
26947;DHT22;14501;52.282;10.560;2023-02-19T00:42:17;8.40;99.90
26947;DHT22;14501;52.282;10.560;2023-02-19T00:44:42;8.30;99.90
26947;DHT22;14501;52.282;10.560;2023-02-19T00:47:08;8.30;99.90
26947;DHT22;14501;52.282;10.560;2023-02-19T00:49:33;8.30;99.90
26947;DHT22;14501;52.282;10.560;2023-02-19T00:51:59;8.20;99.90
26947;DHT22;14501;52.282;10.560;2023-02-19T00:54:25;8.30;99.90
26947;DHT22;14501;52.282;10.560;2023-02-19T00:59:16;8.30;99.90
26947;DHT22;14501;52.282;10.560;2023-02-19T01:01:43;8.30;99.90
26947;DHT22;14501;52.282;10.560;2023-02-19T01:04:09;8.20;99.90
26947;DHT22;14501;52.282;10.560;2023-02-19T01:06:35;10.40;99.90
26947;DHT22;14501;52.282;10.560;2023-02-19T01:09:03;8.20;99.90
26947;DHT22;14501;52.282;10.560;2023-02-19T01:11:28;10.40;99.90
26947;DHT22;14501;52.282;10.560;2023-02-19T01:13:58;8.20;99.90
26947;DHT22;14501;52.282;10.560;2023-02-19T01:18:52;8.30;99.90
26947;DHT22;14501;52.282;10.560;2023-02-19T01:21:24;8.30;99.90
26947;DHT22;14501;52.282;10.560;2023-02-19T01:23:51;8.30;99.90
26947;DHT22;14501;52.282;10.560;2023-02-19T01:26:19;8.40;99.90
26947;DHT22;14501;52.282;10.560;2023-02-19T01:28:45;9.90;99.90
26947;DHT22;14501;52.282;10.560;2023-02-19T01:31:13;8.30;99.90
26947;DHT22;14501;52.282;10.560;2023-02-19T01:33:39;8.40;99.90
26947;DHT22;14501;52.282;10.560;2023-02-19T01:36:06;9.50;99.90
26947;DHT22;14501;52.282;10.560;2023-02-19T01:41:03;8.40;99.90
26947;DHT22;14501;52.282;10.560;2023-02-19T01:43:32;8.40;99.90
26947;DHT22;14501;52.282;10.560;2023-02-19T01:45:58;8.40;99.90
26947;DHT22;14501;52.282;10.560;2023-02-19T01:48:29;8.40;99.90
26947;DHT22;14501;52.282;10.560;2023-02-19T01:51:04;10.30;99.90
26947;DHT22;14501;52.282;10.560;2023-02-19T01:53:35;8.40;99.90
26947;DHT22;14501;52.282;10.560;2023-02-19T01:56:02;9.00;99.90
26947;DHT22;14501;52.282;10.560;2023-02-19T01:58:31;8.40;99.90
26947;DHT22;14501;52.282;10.560;2023-02-19T02:00:59;9.20;99.90
26947;DHT22;14501;52.282;10.560;2023-02-19T02:03:27;8.40;99.90
26947;DHT22;14501;52.282;10.560;2023-02-19T02:05:58;8.40;99.90
26947;DHT22;14501;52.282;10.560;2023-02-19T02:08:26;8.70;99.90
26947;DHT22;14501;52.282;10.560;2023-02-19T02:11:10;10.00;99.90
26947;DHT22;14501;52.282;10.560;2023-02-19T02:13:37;8.30;99.90
26947;DHT22;14501;52.282;10.560;2023-02-19T02:19:08;8.40;99.90
26947;DHT22;14501;52.282;10.560;2023-02-19T02:21:55;8.30;99.90
26947;DHT22;14501;52.282;10.560;2023-02-19T02:29:50;8.30;99.90
26947;DHT22;14501;52.282;10.560;2023-02-19T02:32:23;8.30;99.90
26947;DHT22;14501;52.282;10.560;2023-02-19T02:34:55;8.40;99.90
26947;DHT22;14501;52.282;10.560;2023-02-19T02:37:24;8.30;99.90
26947;DHT22;14501;52.282;10.560;2023-02-19T02:39:53;9.00;99.90
26947;DHT22;14501;52.282;10.560;2023-02-19T02:42:20;8.20;99.90
26947;DHT22;14501;52.282;10.560;2023-02-19T02:44:53;8.20;99.90
26947;DHT22;14501;52.282;10.560;2023-02-19T02:50:23;8.10;99.90
26947;DHT22;14501;52.282;10.560;2023-02-19T02:52:51;8.20;99.90
26947;DHT22;14501;52.282;10.560;2023-02-19T02:55:43;8.10;99.90
26947;DHT22;14501;52.282;10.560;2023-02-19T02:58:10;8.00;99.90
26947;DHT22;14501;52.282;10.560;2023-02-19T03:00:38;8.00;99.90
26947;DHT22;14501;52.282;10.560;2023-02-19T03:03:27;8.30;99.90
26947;DHT22;14501;52.282;10.560;2023-02-19T03:06:01;8.00;99.90
26947;DHT22;14501;52.282;10.560;2023-02-19T03:08:30;8.00;99.90
26947;DHT22;14501;52.282;10.560;2023-02-19T03:11:05;9.30;99.90
26947;DHT22;14501;52.282;10.560;2023-02-19T03:13:55;7.90;99.90
26947;DHT22;14501;52.282;10.560;2023-02-19T03:16:42;7.80;99.90
26947;DHT22;14501;52.282;10.560;2023-02-19T03:19:30;8.00;99.90
26947;DHT22;14501;52.282;10.560;2023-02-19T03:21:59;8.20;99.90
26947;DHT22;14501;52.282;10.560;2023-02-19T03:24:30;7.90;99.90
26947;DHT22;14501;52.282;10.560;2023-02-19T03:27:17;7.90;99.90
26947;DHT22;14501;52.282;10.560;2023-02-19T03:29:47;7.90;99.90
26947;DHT22;14501;52.282;10.560;2023-02-19T03:32:17;8.00;99.90
26947;DHT22;14501;52.282;10.560;2023-02-19T03:35:24;7.80;99.90
26947;DHT22;14501;52.282;10.560;2023-02-19T03:38:14;7.90;99.90
26947;DHT22;14501;52.282;10.560;2023-02-19T03:43:26;7.80;99.90
26947;DHT22;14501;52.282;10.560;2023-02-19T03:46:41;7.80;99.90
26947;DHT22;14501;52.282;10.560;2023-02-19T03:49:23;7.50;99.90
26947;DHT22;14501;52.282;10.560;2023-02-19T03:52:07;7.30;99.90
26947;DHT22;14501;52.282;10.560;2023-02-19T03:54:40;7.20;99.90
26947;DHT22;14501;52.282;10.560;2023-02-19T04:00:10;6.90;99.90
26947;DHT22;14501;52.282;10.560;2023-02-19T04:02:55;6.70;99.90
26947;DHT22;14501;52.282;10.560;2023-02-19T04:05:26;6.50;99.90
26947;DHT22;14501;52.282;10.560;2023-02-19T04:07:57;6.40;99.90
26947;DHT22;14501;52.282;10.560;2023-02-19T04:10:25;7.60;99.90
26947;DHT22;14501;52.282;10.560;2023-02-19T04:13:05;6.20;99.90
26947;DHT22;14501;52.282;10.560;2023-02-19T04:15:32;6.00;99.90
26947;DHT22;14501;52.282;10.560;2023-02-19T04:18:04;5.90;99.90
26947;DHT22;14501;52.282;10.560;2023-02-19T04:20:37;5.80;99.90
26947;DHT22;14501;52.282;10.560;2023-02-19T04:23:03;5.80;99.90
26947;DHT22;14501;52.282;10.560;2023-02-19T04:25:30;5.70;99.90
26947;DHT22;14501;52.282;10.560;2023-02-19T04:27:57;6.00;99.90
26947;DHT22;14501;52.282;10.560;2023-02-19T04:30:23;5.90;99.90
26947;DHT22;14501;52.282;10.560;2023-02-19T04:32:49;5.60;99.90
26947;DHT22;14501;52.282;10.560;2023-02-19T04:35:14;7.70;99.90
26947;DHT22;14501;52.282;10.560;2023-02-19T04:37:40;5.40;99.90
26947;DHT22;14501;52.282;10.560;2023-02-19T04:40:06;5.30;99.90
26947;DHT22;14501;52.282;10.560;2023-02-19T04:42:32;5.50;99.90
26947;DHT22;14501;52.282;10.560;2023-02-19T04:44:57;5.30;99.90
26947;DHT22;14501;52.282;10.560;2023-02-19T04:47:23;6.20;99.90
26947;DHT22;14501;52.282;10.560;2023-02-19T04:49:48;5.30;99.90
26947;DHT22;14501;52.282;10.560;2023-02-19T04:52:14;5.30;99.90
26947;DHT22;14501;52.282;10.560;2023-02-19T04:54:40;6.10;99.90
26947;DHT22;14501;52.282;10.560;2023-02-19T04:57:05;5.90;99.90
26947;DHT22;14501;52.282;10.560;2023-02-19T04:59:31;5.10;99.90
26947;DHT22;14501;52.282;10.560;2023-02-19T05:01:57;5.20;99.90
26947;DHT22;14501;52.282;10.560;2023-02-19T05:04:22;5.20;99.90
26947;DHT22;14501;52.282;10.560;2023-02-19T05:06:48;7.60;99.90
26947;DHT22;14501;52.282;10.560;2023-02-19T05:09:14;5.20;99.90
26947;DHT22;14501;52.282;10.560;2023-02-19T05:11:40;4.90;99.90
26947;DHT22;14501;52.282;10.560;2023-02-19T05:14:05;5.00;99.90
26947;DHT22;14501;52.282;10.560;2023-02-19T05:16:31;6.80;99.90
26947;DHT22;14501;52.282;10.560;2023-02-19T05:18:57;5.10;99.90
26947;DHT22;14501;52.282;10.560;2023-02-19T05:21:23;5.10;99.90
26947;DHT22;14501;52.282;10.560;2023-02-19T05:23:49;4.80;99.90
26947;DHT22;14501;52.282;10.560;2023-02-19T05:26:19;4.70;99.90
26947;DHT22;14501;52.282;10.560;2023-02-19T05:28:47;4.70;99.90
26947;DHT22;14501;52.282;10.560;2023-02-19T05:31:14;4.60;99.90
26947;DHT22;14501;52.282;10.560;2023-02-19T05:33:40;4.70;99.90
26947;DHT22;14501;52.282;10.560;2023-02-19T05:36:10;4.60;99.90
26947;DHT22;14501;52.282;10.560;2023-02-19T05:38:37;4.70;99.90
26947;DHT22;14501;52.282;10.560;2023-02-19T05:41:17;7.20;99.90
26947;DHT22;14501;52.282;10.560;2023-02-19T05:43:45;5.80;99.90
26947;DHT22;14501;52.282;10.560;2023-02-19T05:46:12;7.30;99.90
26947;DHT22;14501;52.282;10.560;2023-02-19T05:48:38;4.50;99.90
26947;DHT22;14501;52.282;10.560;2023-02-19T05:51:06;4.40;99.90
26947;DHT22;14501;52.282;10.560;2023-02-19T05:53:33;4.30;99.90
26947;DHT22;14501;52.282;10.560;2023-02-19T05:55:59;4.80;99.90
26947;DHT22;14501;52.282;10.560;2023-02-19T05:58:25;4.20;99.90
26947;DHT22;14501;52.282;10.560;2023-02-19T06:00:51;4.10;99.90
26947;DHT22;14501;52.282;10.560;2023-02-19T06:03:17;5.30;99.90
26947;DHT22;14501;52.282;10.560;2023-02-19T06:05:42;4.00;99.90
26947;DHT22;14501;52.282;10.560;2023-02-19T06:08:11;3.90;99.90
26947;DHT22;14501;52.282;10.560;2023-02-19T06:10:37;3.90;99.90
26947;DHT22;14501;52.282;10.560;2023-02-19T06:13:04;3.80;99.90
26947;DHT22;14501;52.282;10.560;2023-02-19T06:15:30;3.80;99.90
26947;DHT22;14501;52.282;10.560;2023-02-19T06:17:55;3.80;99.90
26947;DHT22;14501;52.282;10.560;2023-02-19T06:20:21;3.70;99.90
26947;DHT22;14501;52.282;10.560;2023-02-19T06:22:49;3.70;99.90
26947;DHT22;14501;52.282;10.560;2023-02-19T06:25:15;5.20;99.90
26947;DHT22;14501;52.282;10.560;2023-02-19T06:27:40;5.50;99.90
26947;DHT22;14501;52.282;10.560;2023-02-19T06:30:06;5.40;99.90
26947;DHT22;14501;52.282;10.560;2023-02-19T06:32:32;3.70;99.90
26947;DHT22;14501;52.282;10.560;2023-02-19T06:34:58;6.50;99.90
26947;DHT22;14501;52.282;10.560;2023-02-19T06:37:23;3.60;99.90
26947;DHT22;14501;52.282;10.560;2023-02-19T06:39:49;3.40;99.90
26947;DHT22;14501;52.282;10.560;2023-02-19T06:42:15;3.70;99.90
26947;DHT22;14501;52.282;10.560;2023-02-19T06:44:40;5.20;99.90
26947;DHT22;14501;52.282;10.560;2023-02-19T06:47:06;3.60;99.90
26947;DHT22;14501;52.282;10.560;2023-02-19T06:49:32;3.70;99.90
26947;DHT22;14501;52.282;10.560;2023-02-19T06:51:57;3.60;99.90
26947;DHT22;14501;52.282;10.560;2023-02-19T06:54:25;3.60;99.90
26947;DHT22;14501;52.282;10.560;2023-02-19T06:56:51;4.60;99.90
26947;DHT22;14501;52.282;10.560;2023-02-19T06:59:16;3.70;99.90
26947;DHT22;14501;52.282;10.560;2023-02-19T07:01:43;3.50;99.90
26947;DHT22;14501;52.282;10.560;2023-02-19T07:04:09;3.70;99.90
26947;DHT22;14501;52.282;10.560;2023-02-19T07:06:34;5.10;99.90
26947;DHT22;14501;52.282;10.560;2023-02-19T07:09:01;3.70;99.90
26947;DHT22;14501;52.282;10.560;2023-02-19T07:11:32;3.80;99.90
26947;DHT22;14501;52.282;10.560;2023-02-19T07:14:00;3.90;99.90
26947;DHT22;14501;52.282;10.560;2023-02-19T07:16:26;3.70;99.90
26947;DHT22;14501;52.282;10.560;2023-02-19T07:18:54;4.00;99.90
26947;DHT22;14501;52.282;10.560;2023-02-19T07:21:21;3.90;99.90
26947;DHT22;14501;52.282;10.560;2023-02-19T07:23:54;4.30;99.90
26947;DHT22;14501;52.282;10.560;2023-02-19T07:26:21;3.90;99.90
26947;DHT22;14501;52.282;10.560;2023-02-19T07:28:48;3.90;99.90
26947;DHT22;14501;52.282;10.560;2023-02-19T07:31:15;4.70;99.90
26947;DHT22;14501;52.282;10.560;2023-02-19T07:33:42;3.80;99.90
26947;DHT22;14501;52.282;10.560;2023-02-19T07:36:08;4.50;99.90
26947;DHT22;14501;52.282;10.560;2023-02-19T07:38:34;3.80;99.90
26947;DHT22;14501;52.282;10.560;2023-02-19T07:41:01;3.80;99.90
26947;DHT22;14501;52.282;10.560;2023-02-19T07:43:30;3.80;99.90
26947;DHT22;14501;52.282;10.560;2023-02-19T07:45:55;3.80;99.90
26947;DHT22;14501;52.282;10.560;2023-02-19T07:48:21;3.90;99.90
26947;DHT22;14501;52.282;10.560;2023-02-19T07:50:54;4.00;99.90
26947;DHT22;14501;52.282;10.560;2023-02-19T07:53:20;4.20;99.90
26947;DHT22;14501;52.282;10.560;2023-02-19T07:55:46;4.30;99.90
26947;DHT22;14501;52.282;10.560;2023-02-19T07:58:12;4.50;99.90
26947;DHT22;14501;52.282;10.560;2023-02-19T08:00:37;4.50;99.90
26947;DHT22;14501;52.282;10.560;2023-02-19T08:05:35;4.50;99.90
26947;DHT22;14501;52.282;10.560;2023-02-19T08:08:02;4.50;99.90
26947;DHT22;14501;52.282;10.560;2023-02-19T08:10:29;4.50;99.90
26947;DHT22;14501;52.282;10.560;2023-02-19T08:13:15;4.60;99.90
26947;DHT22;14501;52.282;10.560;2023-02-19T08:18:13;4.80;99.90
26947;DHT22;14501;52.282;10.560;2023-02-19T08:20:39;4.80;99.90
26947;DHT22;14501;52.282;10.560;2023-02-19T08:23:06;4.90;99.90
26947;DHT22;14501;52.282;10.560;2023-02-19T08:25:32;5.40;99.90
26947;DHT22;14501;52.282;10.560;2023-02-19T08:27:58;5.40;99.90
26947;DHT22;14501;52.282;10.560;2023-02-19T08:30:25;5.20;99.90
26947;DHT22;14501;52.282;10.560;2023-02-19T08:32:51;5.30;99.90
26947;DHT22;14501;52.282;10.560;2023-02-19T08:35:17;5.50;99.90
26947;DHT22;14501;52.282;10.560;2023-02-19T08:37:43;5.40;99.90
26947;DHT22;14501;52.282;10.560;2023-02-19T08:40:09;5.50;99.90
26947;DHT22;14501;52.282;10.560;2023-02-19T08:42:35;5.50;99.90
26947;DHT22;14501;52.282;10.560;2023-02-19T08:45:00;5.50;99.90
26947;DHT22;14501;52.282;10.560;2023-02-19T08:47:26;5.60;99.90
26947;DHT22;14501;52.282;10.560;2023-02-19T08:49:52;5.70;99.90
26947;DHT22;14501;52.282;10.560;2023-02-19T08:52:17;5.70;99.90
26947;DHT22;14501;52.282;10.560;2023-02-19T08:54:43;5.70;99.90
26947;DHT22;14501;52.282;10.560;2023-02-19T08:57:08;5.80;99.90
26947;DHT22;14501;52.282;10.560;2023-02-19T08:59:34;5.90;99.90
26947;DHT22;14501;52.282;10.560;2023-02-19T09:02:00;6.00;99.90
26947;DHT22;14501;52.282;10.560;2023-02-19T09:04:26;6.20;99.90
26947;DHT22;14501;52.282;10.560;2023-02-19T09:06:52;6.50;99.90
26947;DHT22;14501;52.282;10.560;2023-02-19T09:09:17;6.70;99.90
26947;DHT22;14501;52.282;10.560;2023-02-19T09:11:43;6.70;99.90
26947;DHT22;14501;52.282;10.560;2023-02-19T09:14:08;7.00;99.90
26947;DHT22;14501;52.282;10.560;2023-02-19T09:16:35;6.90;99.90
26947;DHT22;14501;52.282;10.560;2023-02-19T09:19:01;6.90;99.90
26947;DHT22;14501;52.282;10.560;2023-02-19T09:21:26;7.00;99.90
26947;DHT22;14501;52.282;10.560;2023-02-19T09:23:52;7.10;99.90
26947;DHT22;14501;52.282;10.560;2023-02-19T09:26:18;7.50;99.90
26947;DHT22;14501;52.282;10.560;2023-02-19T09:28:43;8.30;99.90
26947;DHT22;14501;52.282;10.560;2023-02-19T09:31:11;10.10;99.90
26947;DHT22;14501;52.282;10.560;2023-02-19T09:33:40;10.50;99.90
26947;DHT22;14501;52.282;10.560;2023-02-19T09:36:06;10.00;99.90
26947;DHT22;14501;52.282;10.560;2023-02-19T09:38:32;9.60;99.90
26947;DHT22;14501;52.282;10.560;2023-02-19T09:40:58;9.40;99.90
26947;DHT22;14501;52.282;10.560;2023-02-19T09:43:30;11.10;99.90
26947;DHT22;14501;52.282;10.560;2023-02-19T09:46:05;12.40;99.90
26947;DHT22;14501;52.282;10.560;2023-02-19T09:48:34;12.20;99.90
26947;DHT22;14501;52.282;10.560;2023-02-19T09:51:00;13.00;99.90
26947;DHT22;14501;52.282;10.560;2023-02-19T09:53:31;13.70;99.90
26947;DHT22;14501;52.282;10.560;2023-02-19T09:56:00;12.40;99.90
26947;DHT22;14501;52.282;10.560;2023-02-19T09:58:50;12.00;99.90
26947;DHT22;14501;52.282;10.560;2023-02-19T10:01:16;11.20;99.90
26947;DHT22;14501;52.282;10.560;2023-02-19T10:03:47;11.30;99.90
26947;DHT22;14501;52.282;10.560;2023-02-19T10:06:20;11.80;99.90
26947;DHT22;14501;52.282;10.560;2023-02-19T10:08:50;12.00;99.90
26947;DHT22;14501;52.282;10.560;2023-02-19T10:11:17;12.00;99.90
26947;DHT22;14501;52.282;10.560;2023-02-19T10:13:46;11.50;99.90
26947;DHT22;14501;52.282;10.560;2023-02-19T10:16:18;10.90;99.90
26947;DHT22;14501;52.282;10.560;2023-02-19T10:18:45;10.90;99.90
26947;DHT22;14501;52.282;10.560;2023-02-19T10:21:19;11.30;99.90
26947;DHT22;14501;52.282;10.560;2023-02-19T10:23:49;11.60;99.90
26947;DHT22;14501;52.282;10.560;2023-02-19T10:26:16;12.50;99.90
26947;DHT22;14501;52.282;10.560;2023-02-19T10:28:41;12.50;99.90
26947;DHT22;14501;52.282;10.560;2023-02-19T10:31:17;11.90;99.90
26947;DHT22;14501;52.282;10.560;2023-02-19T10:38:55;10.50;99.90
26947;DHT22;14501;52.282;10.560;2023-02-19T10:41:25;10.50;99.90
26947;DHT22;14501;52.282;10.560;2023-02-19T10:44:13;10.20;99.90
26947;DHT22;14501;52.282;10.560;2023-02-19T10:46:45;9.30;99.90
26947;DHT22;14501;52.282;10.560;2023-02-19T10:51:43;9.00;99.90
26947;DHT22;14501;52.282;10.560;2023-02-19T10:54:30;9.10;99.90
26947;DHT22;14501;52.282;10.560;2023-02-19T11:02:42;8.70;99.90
26947;DHT22;14501;52.282;10.560;2023-02-19T11:07:35;9.50;99.90
26947;DHT22;14501;52.282;10.560;2023-02-19T11:10:03;10.10;99.90
26947;DHT22;14501;52.282;10.560;2023-02-19T11:12:31;10.70;99.90
26947;DHT22;14501;52.282;10.560;2023-02-19T11:15:22;11.00;99.90
26947;DHT22;14501;52.282;10.560;2023-02-19T11:20:45;11.00;99.90
26947;DHT22;14501;52.282;10.560;2023-02-19T11:23:16;10.90;99.90
26947;DHT22;14501;52.282;10.560;2023-02-19T11:25:48;11.20;99.90
26947;DHT22;14501;52.282;10.560;2023-02-19T11:28:37;11.20;99.90
26947;DHT22;14501;52.282;10.560;2023-02-19T11:31:21;11.20;99.90
26947;DHT22;14501;52.282;10.560;2023-02-19T11:34:01;10.90;99.90
26947;DHT22;14501;52.282;10.560;2023-02-19T11:36:37;10.70;99.90
26947;DHT22;14501;52.282;10.560;2023-02-19T11:41:57;10.90;99.90
26947;DHT22;14501;52.282;10.560;2023-02-19T11:44:51;10.80;99.90
26947;DHT22;14501;52.282;10.560;2023-02-19T11:50:41;10.20;99.90
26947;DHT22;14501;52.282;10.560;2023-02-19T11:56:04;11.30;99.90
26947;DHT22;14501;52.282;10.560;2023-02-19T11:58:59;11.40;99.90
26947;DHT22;14501;52.282;10.560;2023-02-19T12:10:16;11.70;99.90
26947;DHT22;14501;52.282;10.560;2023-02-19T12:18:25;12.10;99.90
26947;DHT22;14501;52.282;10.560;2023-02-19T12:26:48;12.80;99.90
26947;DHT22;14501;52.282;10.560;2023-02-19T12:31:58;12.50;99.90
26947;DHT22;14501;52.282;10.560;2023-02-19T12:43:26;11.70;99.90
26947;DHT22;14501;52.282;10.560;2023-02-19T12:46:06;11.90;99.90
26947;DHT22;14501;52.282;10.560;2023-02-19T12:48:35;11.90;99.90
26947;DHT22;14501;52.282;10.560;2023-02-19T12:51:18;12.10;99.90
26947;DHT22;14501;52.282;10.560;2023-02-19T12:56:32;12.00;99.90
26947;DHT22;14501;52.282;10.560;2023-02-19T12:58:59;12.00;99.90
26947;DHT22;14501;52.282;10.560;2023-02-19T13:01:33;11.90;99.90
26947;DHT22;14501;52.282;10.560;2023-02-19T13:04:30;11.60;99.90
26947;DHT22;14501;52.282;10.560;2023-02-19T13:07:27;11.40;99.90
26947;DHT22;14501;52.282;10.560;2023-02-19T13:10:21;11.20;99.90
26947;DHT22;14501;52.282;10.560;2023-02-19T13:12:48;11.10;99.90
26947;DHT22;14501;52.282;10.560;2023-02-19T13:17:53;10.90;99.90
26947;DHT22;14501;52.282;10.560;2023-02-19T13:20:28;11.10;99.90
26947;DHT22;14501;52.282;10.560;2023-02-19T13:23:47;11.20;99.90
26947;DHT22;14501;52.282;10.560;2023-02-19T13:26:52;11.30;99.90
26947;DHT22;14501;52.282;10.560;2023-02-19T13:37:37;10.90;99.90
26947;DHT22;14501;52.282;10.560;2023-02-19T13:42:57;10.70;99.90
26947;DHT22;14501;52.282;10.560;2023-02-19T13:45:37;10.90;99.90
26947;DHT22;14501;52.282;10.560;2023-02-19T13:50:48;10.10;99.90
26947;DHT22;14501;52.282;10.560;2023-02-19T14:04:39;9.10;99.90
26947;DHT22;14501;52.282;10.560;2023-02-19T14:14:45;9.10;99.90
26947;DHT22;14501;52.282;10.560;2023-02-19T14:17:37;8.60;99.90
26947;DHT22;14501;52.282;10.560;2023-02-19T14:33:27;7.90;99.90
26947;DHT22;14501;52.282;10.560;2023-02-19T14:39:16;7.70;99.90
26947;DHT22;14501;52.282;10.560;2023-02-19T14:41:47;7.70;99.90
26947;DHT22;14501;52.282;10.560;2023-02-19T14:44:20;7.60;99.90
26947;DHT22;14501;52.282;10.560;2023-02-19T14:47:02;7.50;99.90
26947;DHT22;14501;52.282;10.560;2023-02-19T14:49:29;7.50;99.90
26947;DHT22;14501;52.282;10.560;2023-02-19T14:52:02;7.50;99.90
26947;DHT22;14501;52.282;10.560;2023-02-19T14:54:51;7.50;99.90
26947;DHT22;14501;52.282;10.560;2023-02-19T14:57:21;7.50;99.90
26947;DHT22;14501;52.282;10.560;2023-02-19T14:59:53;7.50;99.90
26947;DHT22;14501;52.282;10.560;2023-02-19T15:02:19;7.50;99.90
26947;DHT22;14501;52.282;10.560;2023-02-19T15:04:53;7.50;99.90
26947;DHT22;14501;52.282;10.560;2023-02-19T15:07:25;7.50;99.90
26947;DHT22;14501;52.282;10.560;2023-02-19T15:09:56;9.30;99.90
26947;DHT22;14501;52.282;10.560;2023-02-19T15:12:25;7.10;99.90
26947;DHT22;14501;52.282;10.560;2023-02-19T15:14:54;7.90;99.90
26947;DHT22;14501;52.282;10.560;2023-02-19T15:17:26;8.30;99.90
26947;DHT22;14501;52.282;10.560;2023-02-19T15:19:53;8.50;99.90
26947;DHT22;14501;52.282;10.560;2023-02-19T15:22:21;9.00;99.90
26947;DHT22;14501;52.282;10.560;2023-02-19T15:24:48;6.90;99.90
26947;DHT22;14501;52.282;10.560;2023-02-19T15:27:19;7.10;99.90
26947;DHT22;14501;52.282;10.560;2023-02-19T15:29:47;6.90;99.90
26947;DHT22;14501;52.282;10.560;2023-02-19T15:32:31;6.70;99.90
26947;DHT22;14501;52.282;10.560;2023-02-19T15:35:00;6.70;99.90
26947;DHT22;14501;52.282;10.560;2023-02-19T15:37:28;6.70;99.90
26947;DHT22;14501;52.282;10.560;2023-02-19T15:39:56;6.60;99.90
26947;DHT22;14501;52.282;10.560;2023-02-19T15:42:31;6.60;99.90
26947;DHT22;14501;52.282;10.560;2023-02-19T15:45:19;6.50;99.90
26947;DHT22;14501;52.282;10.560;2023-02-19T15:50:28;6.30;99.90
26947;DHT22;14501;52.282;10.560;2023-02-19T15:53:07;6.20;99.90
26947;DHT22;14501;52.282;10.560;2023-02-19T15:55:59;6.20;99.90
26947;DHT22;14501;52.282;10.560;2023-02-19T15:58:41;6.10;99.90
26947;DHT22;14501;52.282;10.560;2023-02-19T16:01:36;6.10;99.90
26947;DHT22;14501;52.282;10.560;2023-02-19T16:04:05;6.10;99.90
26947;DHT22;14501;52.282;10.560;2023-02-19T16:06:59;6.00;99.90
26947;DHT22;14501;52.282;10.560;2023-02-19T16:09:29;5.90;99.90
26947;DHT22;14501;52.282;10.560;2023-02-19T16:11:57;5.80;99.90
26947;DHT22;14501;52.282;10.560;2023-02-19T16:14:30;5.70;99.90
26947;DHT22;14501;52.282;10.560;2023-02-19T16:22:09;5.60;99.90
26947;DHT22;14501;52.282;10.560;2023-02-19T16:24:44;5.50;99.90
26947;DHT22;14501;52.282;10.560;2023-02-19T16:27:12;5.50;99.90
26947;DHT22;14501;52.282;10.560;2023-02-19T16:29:38;5.20;99.90
26947;DHT22;14501;52.282;10.560;2023-02-19T16:32:06;5.30;99.90
26947;DHT22;14501;52.282;10.560;2023-02-19T16:34:49;7.00;99.90
26947;DHT22;14501;52.282;10.560;2023-02-19T16:37:32;5.10;99.90
26947;DHT22;14501;52.282;10.560;2023-02-19T16:42:33;5.10;99.90
26947;DHT22;14501;52.282;10.560;2023-02-19T16:44:59;4.90;99.90
26947;DHT22;14501;52.282;10.560;2023-02-19T16:47:30;5.00;99.90
26947;DHT22;14501;52.282;10.560;2023-02-19T16:49:59;4.70;99.90
26947;DHT22;14501;52.282;10.560;2023-02-19T16:52:25;4.60;99.90
26947;DHT22;14501;52.282;10.560;2023-02-19T16:54:51;4.60;99.90
26947;DHT22;14501;52.282;10.560;2023-02-19T16:57:16;4.50;99.90
26947;DHT22;14501;52.282;10.560;2023-02-19T16:59:42;4.40;99.90
26947;DHT22;14501;52.282;10.560;2023-02-19T17:02:13;4.40;99.90
26947;DHT22;14501;52.282;10.560;2023-02-19T17:04:40;4.30;99.90
26947;DHT22;14501;52.282;10.560;2023-02-19T17:07:06;4.30;99.90
26947;DHT22;14501;52.282;10.560;2023-02-19T17:09:31;4.20;99.90
26947;DHT22;14501;52.282;10.560;2023-02-19T17:12:04;4.30;99.90
26947;DHT22;14501;52.282;10.560;2023-02-19T17:14:29;4.20;99.90
26947;DHT22;14501;52.282;10.560;2023-02-19T17:16:55;4.20;99.90
26947;DHT22;14501;52.282;10.560;2023-02-19T17:19:21;4.40;99.90
26947;DHT22;14501;52.282;10.560;2023-02-19T17:21:46;4.10;99.90
26947;DHT22;14501;52.282;10.560;2023-02-19T17:24:13;4.30;99.90
26947;DHT22;14501;52.282;10.560;2023-02-19T17:26:39;4.20;99.90
26947;DHT22;14501;52.282;10.560;2023-02-19T17:29:05;4.20;99.90
26947;DHT22;14501;52.282;10.560;2023-02-19T17:31:31;3.80;99.90
26947;DHT22;14501;52.282;10.560;2023-02-19T17:33:58;5.10;99.90
26947;DHT22;14501;52.282;10.560;2023-02-19T17:36:28;4.20;99.90
26947;DHT22;14501;52.282;10.560;2023-02-19T17:38:56;4.20;99.90
26947;DHT22;14501;52.282;10.560;2023-02-19T17:41:22;4.10;99.90
26947;DHT22;14501;52.282;10.560;2023-02-19T17:43:47;4.20;99.90
26947;DHT22;14501;52.282;10.560;2023-02-19T17:46:20;4.10;99.90
26947;DHT22;14501;52.282;10.560;2023-02-19T17:48:46;4.10;99.90
26947;DHT22;14501;52.282;10.560;2023-02-19T17:51:12;4.10;99.90
26947;DHT22;14501;52.282;10.560;2023-02-19T17:53:38;4.10;99.90
26947;DHT22;14501;52.282;10.560;2023-02-19T17:56:04;4.10;99.90
26947;DHT22;14501;52.282;10.560;2023-02-19T17:58:29;4.20;99.90
26947;DHT22;14501;52.282;10.560;2023-02-19T18:00:55;4.70;99.90
26947;DHT22;14501;52.282;10.560;2023-02-19T18:03:20;4.00;99.90
26947;DHT22;14501;52.282;10.560;2023-02-19T18:05:46;4.00;99.90
26947;DHT22;14501;52.282;10.560;2023-02-19T18:08:12;4.80;99.90
26947;DHT22;14501;52.282;10.560;2023-02-19T18:10:38;3.90;99.90
26947;DHT22;14501;52.282;10.560;2023-02-19T18:13:03;6.60;99.90
26947;DHT22;14501;52.282;10.560;2023-02-19T18:15:29;3.90;99.90
26947;DHT22;14501;52.282;10.560;2023-02-19T18:17:55;3.60;99.90
26947;DHT22;14501;52.282;10.560;2023-02-19T18:20:24;5.40;99.90
26947;DHT22;14501;52.282;10.560;2023-02-19T18:22:50;3.90;99.90
26947;DHT22;14501;52.282;10.560;2023-02-19T18:25:17;3.90;99.90